createdAt,value
2019-01-18T00:00:43.278Z,1.40
2019-01-18T00:03:12.215Z,1.40
2019-01-18T00:05:41.205Z,1.40
2019-01-18T00:08:10.210Z,1.40
2019-01-18T00:10:39.211Z,1.30
2019-01-18T00:13:08.139Z,1.30
2019-01-18T00:15:37.138Z,1.30
2019-01-18T00:18:06.154Z,1.20
2019-01-18T00:20:35.144Z,1.20
2019-01-18T00:23:04.076Z,1.10
2019-01-18T00:25:33.008Z,1.00
2019-01-18T00:28:01.989Z,0.90
2019-01-18T00:30:30.908Z,0.90
2019-01-18T00:32:59.912Z,0.90
2019-01-18T00:35:28.946Z,0.90
2019-01-18T00:37:57.922Z,0.90
2019-01-18T00:40:26.863Z,1.00
2019-01-18T00:42:55.985Z,1.00
2019-01-18T00:45:25.002Z,1.00
2019-01-18T00:47:54.226Z,0.90
2019-01-18T00:50:23.140Z,0.90
2019-01-18T00:52:52.126Z,0.90
2019-01-18T00:55:21.054Z,0.90
2019-01-18T00:57:50.048Z,0.90
2019-01-18T01:00:21.732Z,0.90
2019-01-18T01:02:50.717Z,0.90
2019-01-18T01:05:19.633Z,1.00
2019-01-18T01:07:48.652Z,1.00
2019-01-18T01:10:17.783Z,1.00
2019-01-18T01:12:46.783Z,1.00
2019-01-18T01:15:20.253Z,1.00
2019-01-18T01:17:49.452Z,1.00
2019-01-18T01:20:20.271Z,0.90
2019-01-18T01:22:49.371Z,0.90
2019-01-18T01:25:18.391Z,0.90
2019-01-18T01:27:47.493Z,0.90
2019-01-18T01:30:24.749Z,0.80
2019-01-18T01:32:53.931Z,0.90
2019-01-18T01:35:22.963Z,1.00
2019-01-18T01:37:52.050Z,1.00
2019-01-18T01:40:25.629Z,1.00
2019-01-18T01:42:54.814Z,1.10
2019-01-18T01:45:23.833Z,1.10
2019-01-18T01:47:52.916Z,1.10
2019-01-18T01:50:26.036Z,1.00
2019-01-18T01:52:55.344Z,1.00
2019-01-18T01:55:24.275Z,1.00
2019-01-18T01:57:53.252Z,1.10
2019-01-18T02:00:24.636Z,1.00
2019-01-18T02:02:53.675Z,1.10
2019-01-18T02:05:22.654Z,1.10
2019-01-18T02:07:51.587Z,1.00
2019-01-18T02:10:20.591Z,1.00
2019-01-18T02:12:49.523Z,1.00
2019-01-18T02:15:23.624Z,1.10
2019-01-18T02:17:52.556Z,1.10
2019-01-18T02:20:22.839Z,1.10
2019-01-18T02:22:52.177Z,1.10
2019-01-18T02:25:21.168Z,1.00
2019-01-18T02:27:50.191Z,1.00
2019-01-18T02:30:21.848Z,1.10
2019-01-18T02:32:50.782Z,1.10
2019-01-18T02:35:19.776Z,1.00
2019-01-18T02:37:48.683Z,1.00
2019-01-18T02:40:17.696Z,1.00
2019-01-18T02:42:46.622Z,1.00
2019-01-18T02:45:21.067Z,1.00
2019-01-18T02:47:50.088Z,1.00
2019-01-18T02:50:19.108Z,1.00
2019-01-18T02:52:48.036Z,1.00
2019-01-18T02:55:17.042Z,1.00
2019-01-18T02:57:45.965Z,1.10
2019-01-18T03:00:21.003Z,1.10
2019-01-18T03:02:50.019Z,1.00
2019-01-18T03:05:21.521Z,1.00
2019-01-18T03:07:50.440Z,1.00
2019-01-18T03:10:21.569Z,1.00
2019-01-18T03:12:50.493Z,1.00
2019-01-18T03:15:19.496Z,1.00
2019-01-18T03:17:48.429Z,0.90
2019-01-18T03:20:18.739Z,0.90
2019-01-18T03:22:47.694Z,1.00
2019-01-18T03:25:22.113Z,0.90
2019-01-18T03:27:51.039Z,0.90
2019-01-18T03:30:20.890Z,0.90
2019-01-18T03:32:50.368Z,0.90
2019-01-18T03:35:21.046Z,0.90
2019-01-18T03:37:49.973Z,0.80
2019-01-18T03:40:20.172Z,0.90
2019-01-18T03:42:49.483Z,0.90
2019-01-18T03:45:19.789Z,0.90
2019-01-18T03:47:48.714Z,0.90
2019-01-18T03:50:25.010Z,0.90
2019-01-18T03:52:54.032Z,0.90
2019-01-18T03:55:22.960Z,0.90
2019-01-18T03:57:51.942Z,0.90
2019-01-18T04:00:26.161Z,0.90
2019-01-18T04:02:54.074Z,0.90
2019-01-18T04:05:23.367Z,0.90
2019-01-18T04:07:52.348Z,0.80
2019-01-18T04:10:22.279Z,0.80
2019-01-18T04:12:51.265Z,0.80
2019-01-18T04:15:21.981Z,0.80
2019-01-18T04:17:50.983Z,0.80
2019-01-18T04:20:20.931Z,0.70
2019-01-18T04:22:50.049Z,0.70
2019-01-18T04:25:23.272Z,0.60
2019-01-18T04:27:52.265Z,0.50
2019-01-18T04:30:24.354Z,0.60
2019-01-18T04:32:53.451Z,0.60
2019-01-18T04:35:22.354Z,0.40
2019-01-18T04:37:51.373Z,0.40
2019-01-18T04:40:27.541Z,0.40
2019-01-18T04:42:57.069Z,0.30
2019-01-18T04:45:26.008Z,0.30
2019-01-18T04:47:55.412Z,0.20
2019-01-18T04:50:26.427Z,0.30
2019-01-18T04:52:55.409Z,0.30
2019-01-18T04:55:24.341Z,0.30
2019-01-18T04:57:53.444Z,0.20
2019-01-18T05:00:24.164Z,0.20
2019-01-18T05:02:53.250Z,0.30
2019-01-18T05:05:22.274Z,0.30
2019-01-18T05:07:51.269Z,0.20
2019-01-18T05:10:22.749Z,0.20
2019-01-18T05:12:51.683Z,0.20
2019-01-18T05:15:33.350Z,0.30
2019-01-18T05:18:02.443Z,0.20
2019-01-18T05:20:31.366Z,0.20
2019-01-18T05:23:00.325Z,0.20
2019-01-18T05:25:29.333Z,0.20
2019-01-18T05:27:58.247Z,0.20
2019-01-18T05:30:28.841Z,0.20
2019-01-18T05:32:57.763Z,0.30
2019-01-18T05:35:26.879Z,0.40
2019-01-18T05:37:55.814Z,0.40
2019-01-18T05:40:24.805Z,0.40
2019-01-18T05:42:53.751Z,0.40
2019-01-18T05:45:23.640Z,0.40
2019-01-18T05:47:52.666Z,0.40
2019-01-18T05:50:23.576Z,0.40
2019-01-18T05:52:52.510Z,0.40
2019-01-18T05:55:21.688Z,0.40
2019-01-18T05:57:50.710Z,0.50
2019-01-18T06:00:32.247Z,0.40
2019-01-18T06:03:01.296Z,0.40
2019-01-18T06:05:31.317Z,0.40
2019-01-18T06:08:00.280Z,0.50
2019-01-18T06:10:29.213Z,0.40
2019-01-18T06:12:58.318Z,0.40
2019-01-18T06:15:27.351Z,0.40
2019-01-18T06:17:56.346Z,0.40
2019-01-18T06:20:25.276Z,0.50
2019-01-18T06:22:54.264Z,0.50
2019-01-18T06:25:23.204Z,0.50
2019-01-18T06:27:52.219Z,0.50
2019-01-18T06:30:22.227Z,0.50
2019-01-18T06:32:51.212Z,0.50
2019-01-18T06:35:20.246Z,0.50
2019-01-18T06:37:49.240Z,0.50
2019-01-18T06:40:22.437Z,0.50
2019-01-18T06:42:51.420Z,0.50
2019-01-18T06:45:22.866Z,0.40
2019-01-18T06:47:51.850Z,0.40
2019-01-18T06:50:21.080Z,0.50
2019-01-18T06:52:50.064Z,0.40
2019-01-18T06:55:18.990Z,0.40
2019-01-18T06:57:47.995Z,0.30
2019-01-18T07:00:22.360Z,0.40
2019-01-18T07:02:51.346Z,0.30
2019-01-18T07:05:20.280Z,0.40
2019-01-18T07:07:49.276Z,0.30
2019-01-18T07:10:21.327Z,0.30
2019-01-18T07:12:50.429Z,0.40
2019-01-18T07:15:20.367Z,0.40
2019-01-18T07:17:49.476Z,0.40
2019-01-18T07:20:20.223Z,0.40
2019-01-18T07:22:49.217Z,0.40
2019-01-18T07:25:23.229Z,0.50
2019-01-18T07:27:52.157Z,0.50
2019-01-18T07:30:29.667Z,0.50
2019-01-18T07:32:58.661Z,0.50
2019-01-18T07:35:27.587Z,0.50
2019-01-18T07:37:56.508Z,0.60
2019-01-18T07:40:26.191Z,0.60
2019-01-18T07:42:55.543Z,0.60
2019-01-18T07:45:48.383Z,0.60
2019-01-18T07:48:17.295Z,0.60
2019-01-18T07:50:46.283Z,0.60
2019-01-18T07:53:16.367Z,0.60
2019-01-18T07:55:45.420Z,0.70
2019-01-18T07:58:14.336Z,0.70
2019-01-18T08:00:43.338Z,0.70
2019-01-18T08:03:12.288Z,0.70
2019-01-18T08:05:41.309Z,0.80
2019-01-18T08:08:10.338Z,0.70
2019-01-18T08:10:39.450Z,0.80
2019-01-18T08:13:08.380Z,0.80
2019-01-18T08:15:37.374Z,0.80
2019-01-18T08:18:06.311Z,0.90
2019-01-18T08:20:35.994Z,1.00
2019-01-18T08:23:04.923Z,1.10
2019-01-18T08:25:34.029Z,1.10
2019-01-18T08:28:03.046Z,1.20
2019-01-18T08:30:32.050Z,1.50
2019-01-18T08:33:01.097Z,1.80
2019-01-18T08:35:30.074Z,2.20
2019-01-18T08:37:59.002Z,2.70
2019-01-18T08:40:30.205Z,3.40
2019-01-18T08:42:59.119Z,3.50
2019-01-18T08:45:33.886Z,3.30
2019-01-18T08:48:02.805Z,3.10
2019-01-18T08:50:31.804Z,2.90
2019-01-18T08:53:00.730Z,2.80
2019-01-18T08:55:29.730Z,2.90
2019-01-18T08:57:58.776Z,3.30
2019-01-18T09:00:29.958Z,4.10
2019-01-18T09:02:58.938Z,4.80
2019-01-18T09:05:28.768Z,5.20
2019-01-18T09:07:57.755Z,5.60
2019-01-18T09:10:34.875Z,5.80
2019-01-18T09:13:03.974Z,5.90
2019-01-18T09:15:33.021Z,6.00
2019-01-18T09:18:02.002Z,5.70
2019-01-18T09:20:31.739Z,5.20
2019-01-18T09:23:00.923Z,4.60
2019-01-18T09:25:29.859Z,4.00
2019-01-18T09:27:58.942Z,3.40
2019-01-18T09:30:33.851Z,3.10
2019-01-18T09:33:03.944Z,3.20
2019-01-18T09:35:35.539Z,3.40
2019-01-18T09:38:09.105Z,3.70
2019-01-18T09:40:41.341Z,4.00
2019-01-18T09:43:18.422Z,4.30
2019-01-18T09:45:56.197Z,4.50
2019-01-18T09:48:25.159Z,4.70
2019-01-18T09:50:54.088Z,5.00
2019-01-18T09:53:23.101Z,5.20
2019-01-18T09:55:52.033Z,5.20
2019-01-18T09:58:21.115Z,5.20
2019-01-18T10:00:50.043Z,5.10
2019-01-18T10:03:19.161Z,4.90
2019-01-18T10:05:48.204Z,5.00
2019-01-18T10:08:17.301Z,5.10
2019-01-18T10:10:46.242Z,4.90
2019-01-18T10:13:15.358Z,5.00
2019-01-18T10:15:44.268Z,5.20
2019-01-18T10:18:13.254Z,5.30
2019-01-18T10:20:42.177Z,5.50
2019-01-18T10:23:11.172Z,5.40
2019-01-18T10:25:40.075Z,5.10
2019-01-18T10:28:09.173Z,4.70
2019-01-18T10:30:38.190Z,4.40
2019-01-18T10:33:07.281Z,4.70
2019-01-18T10:35:36.191Z,5.00
2019-01-18T10:38:05.191Z,5.50
2019-01-18T10:40:34.122Z,5.80
2019-01-18T10:43:03.046Z,5.80
2019-01-18T10:45:32.040Z,5.50
2019-01-18T10:48:00.972Z,5.30
2019-01-18T10:50:31.870Z,5.60
2019-01-18T10:53:00.803Z,6.10
2019-01-18T10:55:29.792Z,6.40
2019-01-18T10:57:58.738Z,6.50
2019-01-18T11:00:29.759Z,6.00
2019-01-18T11:02:58.747Z,5.50
2019-01-18T11:05:27.734Z,5.00
2019-01-18T11:07:56.666Z,4.70
2019-01-18T11:10:25.661Z,4.60
2019-01-18T11:12:54.691Z,4.30
2019-01-18T11:15:25.783Z,4.00
2019-01-18T11:17:54.702Z,3.70
2019-01-18T11:20:35.170Z,3.70
2019-01-18T11:23:04.213Z,3.70
2019-01-18T11:25:33.208Z,4.10
2019-01-18T11:28:02.131Z,4.20
2019-01-18T11:30:31.125Z,4.30
2019-01-18T11:33:00.164Z,4.20
2019-01-18T11:35:29.162Z,4.10
2019-01-18T11:37:58.174Z,3.90
2019-01-18T11:40:27.169Z,3.70
2019-01-18T11:42:56.189Z,3.60
2019-01-18T11:45:25.205Z,3.50
2019-01-18T11:47:54.120Z,3.40
2019-01-18T11:50:25.428Z,3.30
2019-01-18T11:52:54.417Z,3.30
2019-01-18T11:55:23.293Z,3.20
2019-01-18T11:57:52.280Z,3.10
2019-01-18T12:00:23.107Z,3.00
2019-01-18T12:02:52.203Z,2.90
2019-01-18T12:05:21.129Z,3.00
2019-01-18T12:07:50.122Z,3.20
2019-01-18T12:10:21.658Z,3.20
2019-01-18T12:12:50.758Z,3.10
2019-01-18T12:15:19.681Z,3.00
2019-01-18T12:17:48.677Z,2.90
2019-01-18T12:20:20.361Z,2.80
2019-01-18T12:22:49.354Z,2.70
2019-01-18T12:25:18.268Z,2.70
2019-01-18T12:27:47.275Z,2.60
2019-01-18T12:30:24.896Z,2.60
2019-01-18T12:32:53.890Z,2.50
2019-01-18T12:35:22.809Z,2.40
2019-01-18T12:37:51.803Z,2.40
2019-01-18T12:40:20.753Z,2.30
2019-01-18T12:42:49.730Z,2.20
2019-01-18T12:45:20.447Z,2.10
2019-01-18T12:47:49.533Z,2.10
2019-01-18T12:50:26.902Z,2.10
2019-01-18T12:52:56.003Z,2.10
2019-01-18T12:55:24.948Z,2.10
2019-01-18T12:57:53.924Z,2.10
2019-01-18T13:00:25.401Z,2.10
2019-01-18T13:02:54.390Z,2.10
2019-01-18T13:05:28.675Z,2.10
2019-01-18T13:07:57.666Z,2.20
2019-01-18T13:10:26.691Z,2.20
2019-01-18T13:12:55.693Z,2.20
2019-01-18T13:15:33.561Z,2.20
2019-01-18T13:18:02.561Z,2.30
2019-01-18T13:20:31.602Z,2.30
2019-01-18T13:23:00.521Z,2.30
2019-01-18T13:25:29.626Z,2.30
2019-01-18T13:27:59.861Z,2.30
2019-01-18T13:30:29.028Z,2.40
2019-01-18T13:32:57.963Z,2.40
2019-01-18T13:35:27.626Z,2.30
2019-01-18T13:37:56.660Z,2.30
2019-01-18T13:40:25.662Z,2.40
2019-01-18T13:42:54.591Z,2.40
2019-01-18T13:45:24.512Z,2.40
2019-01-18T13:47:53.502Z,2.50
2019-01-18T13:50:22.494Z,2.50
2019-01-18T13:52:51.422Z,2.50
2019-01-18T13:55:23.523Z,2.50
2019-01-18T13:57:52.548Z,2.60
2019-01-18T14:00:21.547Z,2.70
2019-01-18T14:02:50.466Z,2.80
2019-01-18T14:05:19.451Z,2.70
2019-01-18T14:07:48.467Z,2.70
2019-01-18T14:10:25.915Z,2.60
2019-01-18T14:12:54.847Z,2.60
2019-01-18T14:15:25.136Z,2.60
2019-01-18T14:17:54.148Z,2.60
2019-01-18T14:20:27.674Z,2.60
2019-01-18T14:22:56.601Z,2.60
2019-01-18T14:25:25.591Z,2.50
2019-01-18T14:27:54.545Z,2.40
2019-01-18T14:30:26.667Z,2.40
2019-01-18T14:32:56.088Z,2.30
2019-01-18T14:35:25.281Z,2.30
2019-01-18T14:37:54.427Z,2.20
2019-01-18T14:40:23.408Z,2.20
2019-01-18T14:42:53.619Z,2.20
2019-01-18T14:45:31.272Z,2.10
2019-01-18T14:48:00.421Z,2.10
2019-01-18T14:50:29.448Z,2.00
2019-01-18T14:52:58.537Z,1.90
2019-01-18T14:55:27.452Z,1.90
2019-01-18T14:57:56.451Z,1.80
2019-01-18T15:00:31.668Z,1.80
2019-01-18T15:03:02.384Z,1.80
2019-01-18T15:05:31.115Z,1.80
2019-01-18T15:08:00.108Z,1.80
2019-01-18T15:10:29.036Z,1.80
2019-01-18T15:13:09.459Z,1.80
2019-01-18T15:15:38.389Z,1.80
2019-01-18T15:18:07.387Z,1.80
2019-01-18T15:20:36.422Z,1.70
2019-01-18T15:23:05.513Z,1.60
2019-01-18T15:25:34.454Z,1.50
2019-01-18T15:28:03.550Z,1.50
2019-01-18T15:30:34.081Z,1.50
2019-01-18T15:33:08.805Z,1.40
2019-01-18T15:35:35.536Z,1.40
2019-01-18T15:38:05.764Z,1.30
2019-01-18T15:40:37.289Z,1.30
2019-01-18T15:43:06.481Z,1.20
2019-01-18T15:45:35.404Z,1.10
2019-01-18T15:48:04.491Z,1.00
2019-01-18T15:50:35.723Z,0.90
2019-01-18T15:53:04.904Z,0.80
2019-01-18T15:55:33.942Z,0.60
2019-01-18T15:58:02.939Z,0.40
2019-01-18T16:00:37.745Z,0.30
2019-01-18T16:03:07.122Z,0.20
2019-01-18T16:05:49.362Z,0.00
2019-01-18T16:08:18.352Z,0.00
2019-01-18T16:10:47.279Z,-0.20
2019-01-18T16:13:16.269Z,-0.30
2019-01-18T16:15:57.480Z,-0.30
2019-01-18T16:18:26.885Z,-0.40
2019-01-18T16:20:55.839Z,-0.40
2019-01-18T16:23:24.781Z,-0.40
2019-01-18T16:25:53.780Z,-0.50
2019-01-18T16:28:22.694Z,-0.70
2019-01-18T16:30:51.689Z,-0.80
2019-01-18T16:33:23.475Z,-0.90
2019-01-18T16:35:51.682Z,-0.90
2019-01-18T16:38:20.606Z,-0.80
2019-01-18T16:40:49.604Z,-0.80
2019-01-18T16:43:24.936Z,-0.70
2019-01-18T16:45:53.926Z,-0.80
2019-01-18T16:48:22.863Z,-1.00
2019-01-18T16:50:51.954Z,-0.90
2019-01-18T16:53:20.883Z,-1.00
2019-01-18T16:55:49.889Z,-1.00
2019-01-18T16:58:18.804Z,-1.10
2019-01-18T17:00:53.246Z,-1.20
2019-01-18T17:03:22.174Z,-1.20
2019-01-18T17:05:51.476Z,-1.10
2019-01-18T17:08:20.412Z,-1.00
2019-01-18T17:10:49.424Z,-1.00
2019-01-18T17:13:18.370Z,-1.10
2019-01-18T17:15:47.377Z,-1.20
2019-01-18T17:18:16.322Z,-1.30
2019-01-18T17:20:48.819Z,-1.30
2019-01-18T17:23:17.753Z,-1.40
2019-01-18T17:25:46.746Z,-1.30
2019-01-18T17:28:15.673Z,-1.30
2019-01-18T17:30:44.669Z,-1.30
2019-01-18T17:33:13.611Z,-1.30
2019-01-18T17:35:45.788Z,-1.30
2019-01-18T17:38:23.708Z,-1.30
2019-01-18T17:41:13.987Z,-1.50
2019-01-18T17:43:46.033Z,-1.60
2019-01-18T17:46:24.024Z,-1.70
2019-01-18T17:48:58.764Z,-1.70
2019-01-18T17:51:33.704Z,-1.70
2019-01-18T17:54:11.748Z,-1.70
2019-01-18T17:56:49.907Z,-1.70
2019-01-18T17:59:33.860Z,-1.80
2019-01-18T18:02:08.967Z,-1.80
2019-01-18T18:05:01.866Z,-1.80
2019-01-18T18:07:39.604Z,-1.90
2019-01-18T18:10:14.653Z,-1.90
2019-01-18T18:13:19.720Z,-2.00
2019-01-18T18:15:51.774Z,-2.00
2019-01-18T18:18:38.373Z,-2.00
2019-01-18T18:21:28.162Z,-2.00
2019-01-18T18:24:13.204Z,-2.00
2019-01-18T18:26:59.995Z,-1.90
2019-01-18T18:29:34.781Z,-1.90
2019-01-18T18:32:15.545Z,-1.90
2019-01-18T18:34:50.316Z,-1.90
2019-01-18T18:37:22.438Z,-2.00
2019-01-18T18:40:04.439Z,-2.00
2019-01-18T18:42:42.487Z,-2.10
2019-01-18T18:45:33.933Z,-2.10
2019-01-18T18:48:38.914Z,-2.00
2019-01-18T18:51:16.724Z,-2.00
2019-01-18T18:53:48.823Z,-2.00
2019-01-18T18:56:41.509Z,-2.00
2019-01-18T18:59:16.576Z,-2.00
2019-01-18T19:02:00.565Z,-2.10
2019-01-18T19:04:46.546Z,-2.20
2019-01-18T19:07:51.399Z,-2.30
2019-01-18T19:10:29.399Z,-2.30
2019-01-18T19:13:04.563Z,-2.30
2019-01-18T19:16:03.755Z,-2.20
2019-01-18T19:18:52.324Z,-2.30
2019-01-18T19:21:24.490Z,-2.40
2019-01-18T19:24:17.268Z,-2.40
2019-01-18T19:27:01.205Z,-2.40
2019-01-18T19:29:39.336Z,-2.40
2019-01-18T19:32:27.487Z,-2.40
2019-01-18T19:35:22.028Z,-2.40
2019-01-18T19:37:59.894Z,-2.40
2019-01-18T19:40:32.015Z,-2.50
2019-01-18T19:43:25.235Z,-2.60
2019-01-18T19:46:13.650Z,-2.60
2019-01-18T19:48:54.481Z,-2.60
2019-01-18T19:51:41.711Z,-2.60
2019-01-18T19:54:28.903Z,-2.60
2019-01-18T19:57:20.454Z,-2.50
2019-01-18T20:00:23.938Z,-2.50
2019-01-18T20:02:59.031Z,-2.60
2019-01-18T20:05:42.782Z,-2.60
2019-01-18T20:08:31.099Z,-2.60
2019-01-18T20:11:11.868Z,-2.60
2019-01-18T20:13:52.616Z,-2.60
2019-01-18T20:16:30.472Z,-2.60
2019-01-18T20:19:20.545Z,-2.60
2019-01-18T20:21:58.554Z,-2.50
2019-01-18T20:24:48.392Z,-2.50
2019-01-18T20:27:23.347Z,-2.50
2019-01-18T20:30:01.537Z,-2.60
2019-01-18T20:32:50.107Z,-2.70
2019-01-18T20:35:46.348Z,-2.70
2019-01-18T20:38:27.293Z,-2.80
2019-01-18T20:41:08.042Z,-2.90
2019-01-18T20:43:40.228Z,-2.90
2019-01-18T20:46:41.210Z,-2.90
2019-01-18T20:49:10.869Z,-3.00
2019-01-18T20:51:45.809Z,-3.00
2019-01-18T20:54:32.514Z,-3.00
2019-01-18T20:57:37.716Z,-3.00
2019-01-18T21:00:26.136Z,-2.90
2019-01-18T21:03:09.859Z,-2.70
2019-01-18T21:05:48.272Z,-2.60
2019-01-18T21:08:29.070Z,-2.60
2019-01-18T21:11:17.236Z,-2.60
2019-01-18T21:13:49.434Z,-2.70
2019-01-18T21:16:27.526Z,-2.70
2019-01-18T21:18:59.677Z,-2.70
2019-01-18T21:21:31.843Z,-2.70
2019-01-18T21:24:19.128Z,-2.70
2019-01-18T21:26:54.135Z,-2.60
2019-01-18T21:29:26.260Z,-2.50
2019-01-18T21:32:03.937Z,-2.50
2019-01-18T21:34:56.935Z,-2.30
2019-01-18T21:37:43.667Z,-2.40
2019-01-18T21:40:15.740Z,-2.20
2019-01-18T21:42:53.514Z,-2.30
2019-01-18T21:45:28.286Z,-2.30
2019-01-18T21:48:19.712Z,-2.30
2019-01-18T21:51:25.628Z,-2.40
2019-01-18T21:54:03.507Z,-2.50
2019-01-18T21:57:05.458Z,-2.50
2019-01-18T22:00:10.432Z,-2.60
2019-01-18T22:02:54.489Z,-2.50
2019-01-18T22:05:44.386Z,-2.50
2019-01-18T22:08:41.713Z,-2.60
2019-01-18T22:11:13.881Z,-2.70
2019-01-18T22:13:57.765Z,-2.70
2019-01-18T22:16:56.476Z,-2.70
2019-01-18T22:19:34.401Z,-2.70
2019-01-18T22:22:18.160Z,-2.70
2019-01-18T22:24:52.841Z,-2.80
2019-01-18T22:27:30.753Z,-2.80
2019-01-18T22:30:11.568Z,-2.80
2019-01-18T22:32:58.322Z,-2.80
2019-01-18T22:35:48.622Z,-2.80
2019-01-18T22:38:27.757Z,-2.90
2019-01-18T22:41:20.827Z,-2.90
2019-01-18T22:44:16.583Z,-2.90
2019-01-18T22:47:06.423Z,-3.10
2019-01-18T22:50:05.261Z,-3.10
2019-01-18T22:53:01.048Z,-3.20
2019-01-18T22:55:38.817Z,-3.20
2019-01-18T22:58:31.530Z,-3.30
2019-01-18T23:01:24.765Z,-3.30
2019-01-18T23:04:14.781Z,-3.30
2019-01-18T23:06:52.644Z,-3.30
2019-01-18T23:09:53.245Z,-3.40
2019-01-18T23:12:28.466Z,-3.50
2019-01-18T23:15:33.408Z,-3.50
2019-01-18T23:18:05.560Z,-3.50
2019-01-18T23:20:59.797Z,-3.60
2019-01-18T23:23:43.749Z,-3.60
2019-01-18T23:26:27.648Z,-3.60
2019-01-18T23:28:59.710Z,-3.60
2019-01-18T23:31:48.270Z,-3.70
2019-01-18T23:34:27.177Z,-3.70
2019-01-18T23:37:11.372Z,-3.70
2019-01-18T23:40:00.752Z,-3.80
2019-01-18T23:42:41.696Z,-3.80
2019-01-18T23:45:28.628Z,-3.80
2019-01-18T23:48:09.011Z,-3.80
2019-01-18T23:50:41.066Z,-3.90
2019-01-18T23:53:22.269Z,-4.00
2019-01-18T23:56:15.268Z,-4.00
2019-01-18T23:59:03.770Z,-4.00
